sensor_id;sensor_type;location;lat;lon;timestamp;temperature;humidity
19017;DHT22;9641;51.494;6.670;2023-04-24T00:01:55;11.40;1.00
19017;DHT22;9641;51.494;6.670;2023-04-24T00:04:24;11.40;1.00
19017;DHT22;9641;51.494;6.670;2023-04-24T00:06:51;11.40;1.00
19017;DHT22;9641;51.494;6.670;2023-04-24T00:09:22;11.40;1.00
19017;DHT22;9641;51.494;6.670;2023-04-24T00:11:51;11.30;1.00
19017;DHT22;9641;51.494;6.670;2023-04-24T00:14:19;11.30;1.00
19017;DHT22;9641;51.494;6.670;2023-04-24T00:16:46;11.20;1.00
19017;DHT22;9641;51.494;6.670;2023-04-24T00:19:13;11.20;4.70
19017;DHT22;9641;51.494;6.670;2023-04-24T00:21:40;11.10;1.00
19017;DHT22;9641;51.494;6.670;2023-04-24T00:24:28;11.10;1.00
19017;DHT22;9641;51.494;6.670;2023-04-24T00:26:56;11.10;1.00
19017;DHT22;9641;51.494;6.670;2023-04-24T00:29:24;11.10;1.00
19017;DHT22;9641;51.494;6.670;2023-04-24T00:31:51;11.10;1.00
19017;DHT22;9641;51.494;6.670;2023-04-24T00:34:17;11.10;1.00
19017;DHT22;9641;51.494;6.670;2023-04-24T00:36:44;11.00;1.00
19017;DHT22;9641;51.494;6.670;2023-04-24T00:39:11;10.90;1.00
19017;DHT22;9641;51.494;6.670;2023-04-24T00:41:38;10.90;1.00
19017;DHT22;9641;51.494;6.670;2023-04-24T00:44:07;10.80;1.80
19017;DHT22;9641;51.494;6.670;2023-04-24T00:46:34;10.80;1.00
19017;DHT22;9641;51.494;6.670;2023-04-24T00:49:02;10.70;1.00
19017;DHT22;9641;51.494;6.670;2023-04-24T00:51:31;10.60;1.00
19017;DHT22;9641;51.494;6.670;2023-04-24T00:53:58;10.60;10.50
19017;DHT22;9641;51.494;6.670;2023-04-24T00:56:25;10.60;10.80
19017;DHT22;9641;51.494;6.670;2023-04-24T00:58:52;10.60;16.10
19017;DHT22;9641;51.494;6.670;2023-04-24T01:01:22;10.60;25.00
19017;DHT22;9641;51.494;6.670;2023-04-24T01:03:53;10.60;27.50
19017;DHT22;9641;51.494;6.670;2023-04-24T01:06:20;10.60;32.10
19017;DHT22;9641;51.494;6.670;2023-04-24T01:08:48;10.50;31.90
19017;DHT22;9641;51.494;6.670;2023-04-24T01:11:16;10.50;45.60
19017;DHT22;9641;51.494;6.670;2023-04-24T01:13:45;10.50;49.40
19017;DHT22;9641;51.494;6.670;2023-04-24T01:16:12;10.50;47.90
19017;DHT22;9641;51.494;6.670;2023-04-24T01:18:41;10.50;43.10
19017;DHT22;9641;51.494;6.670;2023-04-24T01:21:13;10.40;54.40
19017;DHT22;9641;51.494;6.670;2023-04-24T01:23:43;10.40;58.80
19017;DHT22;9641;51.494;6.670;2023-04-24T01:26:10;10.40;63.40
19017;DHT22;9641;51.494;6.670;2023-04-24T01:28:37;10.40;56.90
19017;DHT22;9641;51.494;6.670;2023-04-24T01:31:05;10.40;81.30
19017;DHT22;9641;51.494;6.670;2023-04-24T01:33:32;10.30;74.30
19017;DHT22;9641;51.494;6.670;2023-04-24T01:36:00;10.30;73.70
19017;DHT22;9641;51.494;6.670;2023-04-24T01:38:27;10.30;80.70
19017;DHT22;9641;51.494;6.670;2023-04-24T01:40:55;10.30;79.90
19017;DHT22;9641;51.494;6.670;2023-04-24T01:43:24;10.30;76.10
19017;DHT22;9641;51.494;6.670;2023-04-24T01:45:51;10.30;84.30
19017;DHT22;9641;51.494;6.670;2023-04-24T01:48:18;10.30;84.90
19017;DHT22;9641;51.494;6.670;2023-04-24T01:50:45;10.30;72.60
19017;DHT22;9641;51.494;6.670;2023-04-24T01:53:12;10.30;83.90
19017;DHT22;9641;51.494;6.670;2023-04-24T01:55:40;10.30;75.00
19017;DHT22;9641;51.494;6.670;2023-04-24T01:58:09;10.30;91.20
19017;DHT22;9641;51.494;6.670;2023-04-24T02:00:36;10.30;82.80
19017;DHT22;9641;51.494;6.670;2023-04-24T02:03:03;10.30;72.40
19017;DHT22;9641;51.494;6.670;2023-04-24T02:05:30;10.40;78.60
19017;DHT22;9641;51.494;6.670;2023-04-24T02:07:57;10.30;69.20
19017;DHT22;9641;51.494;6.670;2023-04-24T02:10:24;10.30;87.00
19017;DHT22;9641;51.494;6.670;2023-04-24T02:12:52;10.30;75.70
19017;DHT22;9641;51.494;6.670;2023-04-24T02:15:24;10.30;86.70
19017;DHT22;9641;51.494;6.670;2023-04-24T02:17:51;10.30;89.30
19017;DHT22;9641;51.494;6.670;2023-04-24T02:20:18;10.30;86.10
19017;DHT22;9641;51.494;6.670;2023-04-24T02:22:48;10.30;93.50
19017;DHT22;9641;51.494;6.670;2023-04-24T02:25:18;10.30;95.60
19017;DHT22;9641;51.494;6.670;2023-04-24T02:27:45;10.20;99.90
19017;DHT22;9641;51.494;6.670;2023-04-24T02:30:13;10.20;99.90
19017;DHT22;9641;51.494;6.670;2023-04-24T02:32:41;10.20;99.90
19017;DHT22;9641;51.494;6.670;2023-04-24T02:35:10;10.20;99.90
19017;DHT22;9641;51.494;6.670;2023-04-24T02:37:37;10.20;99.90
19017;DHT22;9641;51.494;6.670;2023-04-24T02:40:05;10.20;99.90
19017;DHT22;9641;51.494;6.670;2023-04-24T02:42:32;10.10;99.90
19017;DHT22;9641;51.494;6.670;2023-04-24T02:45:00;10.10;99.90
19017;DHT22;9641;51.494;6.670;2023-04-24T02:47:27;10.10;99.90
19017;DHT22;9641;51.494;6.670;2023-04-24T02:49:55;10.10;99.90
19017;DHT22;9641;51.494;6.670;2023-04-24T02:52:23;10.10;99.90
19017;DHT22;9641;51.494;6.670;2023-04-24T02:54:50;10.10;99.90
19017;DHT22;9641;51.494;6.670;2023-04-24T02:57:17;10.10;99.90
19017;DHT22;9641;51.494;6.670;2023-04-24T02:59:44;10.10;99.90
19017;DHT22;9641;51.494;6.670;2023-04-24T03:02:14;10.10;99.90
19017;DHT22;9641;51.494;6.670;2023-04-24T03:04:44;10.10;99.90
19017;DHT22;9641;51.494;6.670;2023-04-24T03:07:12;10.10;99.90
19017;DHT22;9641;51.494;6.670;2023-04-24T03:09:40;10.10;99.90
19017;DHT22;9641;51.494;6.670;2023-04-24T03:12:07;10.00;99.90
19017;DHT22;9641;51.494;6.670;2023-04-24T03:14:34;10.10;99.90
19017;DHT22;9641;51.494;6.670;2023-04-24T03:17:02;10.10;99.90
19017;DHT22;9641;51.494;6.670;2023-04-24T03:19:29;10.10;99.90
19017;DHT22;9641;51.494;6.670;2023-04-24T03:22:07;10.00;99.90
19017;DHT22;9641;51.494;6.670;2023-04-24T03:24:36;10.10;99.90
19017;DHT22;9641;51.494;6.670;2023-04-24T03:27:04;10.10;99.90
19017;DHT22;9641;51.494;6.670;2023-04-24T03:29:48;10.10;99.90
19017;DHT22;9641;51.494;6.670;2023-04-24T03:32:17;10.10;99.90
19017;DHT22;9641;51.494;6.670;2023-04-24T03:34:46;10.10;99.90
19017;DHT22;9641;51.494;6.670;2023-04-24T03:37:14;10.10;99.90
19017;DHT22;9641;51.494;6.670;2023-04-24T03:39:48;10.10;99.90
19017;DHT22;9641;51.494;6.670;2023-04-24T03:42:18;10.10;99.90
19017;DHT22;9641;51.494;6.670;2023-04-24T03:44:51;10.10;99.90
19017;DHT22;9641;51.494;6.670;2023-04-24T03:47:22;10.10;99.90
19017;DHT22;9641;51.494;6.670;2023-04-24T03:49:50;10.10;99.90
19017;DHT22;9641;51.494;6.670;2023-04-24T03:52:18;10.10;99.90
19017;DHT22;9641;51.494;6.670;2023-04-24T03:54:45;10.10;99.90
19017;DHT22;9641;51.494;6.670;2023-04-24T03:57:14;10.20;98.90
19017;DHT22;9641;51.494;6.670;2023-04-24T03:59:52;10.10;99.90
19017;DHT22;9641;51.494;6.670;2023-04-24T04:02:20;10.10;99.90
19017;DHT22;9641;51.494;6.670;2023-04-24T04:04:47;10.20;98.80
19017;DHT22;9641;51.494;6.670;2023-04-24T04:07:15;10.20;99.90
19017;DHT22;9641;51.494;6.670;2023-04-24T04:09:42;10.10;90.10
19017;DHT22;9641;51.494;6.670;2023-04-24T04:12:09;10.10;92.40
19017;DHT22;9641;51.494;6.670;2023-04-24T04:14:39;10.20;90.40
19017;DHT22;9641;51.494;6.670;2023-04-24T04:17:06;10.10;85.80
19017;DHT22;9641;51.494;6.670;2023-04-24T04:19:34;10.10;89.70
19017;DHT22;9641;51.494;6.670;2023-04-24T04:22:01;10.10;85.80
19017;DHT22;9641;51.494;6.670;2023-04-24T04:24:37;10.10;82.00
19017;DHT22;9641;51.494;6.670;2023-04-24T04:27:07;10.10;90.40
19017;DHT22;9641;51.494;6.670;2023-04-24T04:29:44;10.00;92.90
19017;DHT22;9641;51.494;6.670;2023-04-24T04:32:14;10.10;93.20
19017;DHT22;9641;51.494;6.670;2023-04-24T04:34:42;10.00;92.10
19017;DHT22;9641;51.494;6.670;2023-04-24T04:37:11;10.00;92.10
19017;DHT22;9641;51.494;6.670;2023-04-24T04:39:58;10.00;93.40
19017;DHT22;9641;51.494;6.670;2023-04-24T04:42:27;10.00;92.20
19017;DHT22;9641;51.494;6.670;2023-04-24T04:44:56;10.00;91.10
19017;DHT22;9641;51.494;6.670;2023-04-24T04:47:30;10.00;74.10
19017;DHT22;9641;51.494;6.670;2023-04-24T04:49:59;10.00;84.80
19017;DHT22;9641;51.494;6.670;2023-04-24T04:52:27;10.10;76.30
19017;DHT22;9641;51.494;6.670;2023-04-24T04:55:11;10.10;61.20
19017;DHT22;9641;51.494;6.670;2023-04-24T04:58:06;10.00;55.40
19017;DHT22;9641;51.494;6.670;2023-04-24T05:00:34;10.00;60.80
19017;DHT22;9641;51.494;6.670;2023-04-24T05:03:10;10.00;60.80
19017;DHT22;9641;51.494;6.670;2023-04-24T05:05:38;10.00;60.30
19017;DHT22;9641;51.494;6.670;2023-04-24T05:08:09;10.00;45.90
19017;DHT22;9641;51.494;6.670;2023-04-24T05:10:37;10.00;39.00
19017;DHT22;9641;51.494;6.670;2023-04-24T05:13:05;10.00;50.80
19017;DHT22;9641;51.494;6.670;2023-04-24T05:15:34;10.00;63.80
19017;DHT22;9641;51.494;6.670;2023-04-24T05:18:01;10.00;66.50
19017;DHT22;9641;51.494;6.670;2023-04-24T05:20:28;10.00;57.00
19017;DHT22;9641;51.494;6.670;2023-04-24T05:22:55;9.90;65.10
19017;DHT22;9641;51.494;6.670;2023-04-24T05:25:27;9.80;79.00
19017;DHT22;9641;51.494;6.670;2023-04-24T05:27:59;9.80;85.60
19017;DHT22;9641;51.494;6.670;2023-04-24T05:30:26;9.80;95.30
19017;DHT22;9641;51.494;6.670;2023-04-24T05:32:55;9.70;99.90
19017;DHT22;9641;51.494;6.670;2023-04-24T05:35:22;9.60;99.90
19017;DHT22;9641;51.494;6.670;2023-04-24T05:37:50;9.80;99.90
19017;DHT22;9641;51.494;6.670;2023-04-24T05:40:17;9.80;99.90
19017;DHT22;9641;51.494;6.670;2023-04-24T05:42:44;9.80;99.90
19017;DHT22;9641;51.494;6.670;2023-04-24T05:45:11;9.80;99.90
19017;DHT22;9641;51.494;6.670;2023-04-24T05:47:42;9.80;99.90
19017;DHT22;9641;51.494;6.670;2023-04-24T05:50:12;9.90;99.90
19017;DHT22;9641;51.494;6.670;2023-04-24T05:52:39;9.80;99.90
19017;DHT22;9641;51.494;6.670;2023-04-24T05:55:17;9.70;99.90
19017;DHT22;9641;51.494;6.670;2023-04-24T05:57:44;9.50;99.90
19017;DHT22;9641;51.494;6.670;2023-04-24T06:00:12;9.30;99.90
19017;DHT22;9641;51.494;6.670;2023-04-24T06:02:43;9.20;99.90
19017;DHT22;9641;51.494;6.670;2023-04-24T06:05:14;9.20;99.90
19017;DHT22;9641;51.494;6.670;2023-04-24T06:07:41;9.20;99.90
19017;DHT22;9641;51.494;6.670;2023-04-24T06:10:09;9.10;99.90
19017;DHT22;9641;51.494;6.670;2023-04-24T06:12:41;9.00;99.90
19017;DHT22;9641;51.494;6.670;2023-04-24T06:15:14;9.10;99.90
19017;DHT22;9641;51.494;6.670;2023-04-24T06:17:50;9.10;99.90
19017;DHT22;9641;51.494;6.670;2023-04-24T06:20:20;9.10;99.90
19017;DHT22;9641;51.494;6.670;2023-04-24T06:22:47;9.10;99.90
19017;DHT22;9641;51.494;6.670;2023-04-24T06:25:14;9.00;99.90
19017;DHT22;9641;51.494;6.670;2023-04-24T06:27:40;9.00;99.90
19017;DHT22;9641;51.494;6.670;2023-04-24T06:30:09;9.00;99.90
19017;DHT22;9641;51.494;6.670;2023-04-24T06:32:36;9.00;99.90
19017;DHT22;9641;51.494;6.670;2023-04-24T06:35:04;9.10;99.90
19017;DHT22;9641;51.494;6.670;2023-04-24T06:37:34;9.00;99.90
19017;DHT22;9641;51.494;6.670;2023-04-24T06:40:01;8.90;99.90
19017;DHT22;9641;51.494;6.670;2023-04-24T06:42:28;8.90;99.90
19017;DHT22;9641;51.494;6.670;2023-04-24T06:44:55;8.80;99.90
19017;DHT22;9641;51.494;6.670;2023-04-24T06:47:22;8.80;99.90
19017;DHT22;9641;51.494;6.670;2023-04-24T06:49:49;8.80;99.90
19017;DHT22;9641;51.494;6.670;2023-04-24T06:52:18;8.80;99.90
19017;DHT22;9641;51.494;6.670;2023-04-24T06:54:46;8.80;99.90
19017;DHT22;9641;51.494;6.670;2023-04-24T06:57:13;8.80;99.90
19017;DHT22;9641;51.494;6.670;2023-04-24T06:59:41;8.80;99.90
19017;DHT22;9641;51.494;6.670;2023-04-24T07:02:08;8.80;99.90
19017;DHT22;9641;51.494;6.670;2023-04-24T07:04:35;8.80;99.90
19017;DHT22;9641;51.494;6.670;2023-04-24T07:07:03;8.80;99.90
19017;DHT22;9641;51.494;6.670;2023-04-24T07:09:30;8.80;99.90
19017;DHT22;9641;51.494;6.670;2023-04-24T07:11:58;8.90;99.90
19017;DHT22;9641;51.494;6.670;2023-04-24T07:14:25;8.90;99.90
19017;DHT22;9641;51.494;6.670;2023-04-24T07:16:52;8.90;99.90
19017;DHT22;9641;51.494;6.670;2023-04-24T07:19:19;8.90;99.90
19017;DHT22;9641;51.494;6.670;2023-04-24T07:21:46;8.80;99.90
19017;DHT22;9641;51.494;6.670;2023-04-24T07:24:13;8.70;99.90
19017;DHT22;9641;51.494;6.670;2023-04-24T07:26:40;8.70;99.90
19017;DHT22;9641;51.494;6.670;2023-04-24T07:29:08;8.60;99.90
19017;DHT22;9641;51.494;6.670;2023-04-24T07:31:36;8.70;99.90
19017;DHT22;9641;51.494;6.670;2023-04-24T07:34:03;8.70;99.90
19017;DHT22;9641;51.494;6.670;2023-04-24T07:36:30;8.60;99.90
19017;DHT22;9641;51.494;6.670;2023-04-24T07:38:57;8.50;99.90
19017;DHT22;9641;51.494;6.670;2023-04-24T07:41:25;8.50;99.90
19017;DHT22;9641;51.494;6.670;2023-04-24T07:43:53;8.50;99.90
19017;DHT22;9641;51.494;6.670;2023-04-24T07:46:22;8.40;99.90
19017;DHT22;9641;51.494;6.670;2023-04-24T07:48:50;8.40;99.90
19017;DHT22;9641;51.494;6.670;2023-04-24T07:51:17;8.40;99.90
19017;DHT22;9641;51.494;6.670;2023-04-24T07:53:44;8.40;99.90
19017;DHT22;9641;51.494;6.670;2023-04-24T07:56:11;8.30;99.90
19017;DHT22;9641;51.494;6.670;2023-04-24T07:58:38;8.30;99.90
19017;DHT22;9641;51.494;6.670;2023-04-24T08:01:05;8.40;99.90
19017;DHT22;9641;51.494;6.670;2023-04-24T08:03:33;8.40;99.90
19017;DHT22;9641;51.494;6.670;2023-04-24T08:06:00;8.40;99.90
19017;DHT22;9641;51.494;6.670;2023-04-24T08:08:27;8.40;99.90
19017;DHT22;9641;51.494;6.670;2023-04-24T08:10:54;8.40;99.90
19017;DHT22;9641;51.494;6.670;2023-04-24T08:13:21;8.40;99.90
19017;DHT22;9641;51.494;6.670;2023-04-24T08:15:48;8.40;99.90
19017;DHT22;9641;51.494;6.670;2023-04-24T08:18:15;8.40;99.90
19017;DHT22;9641;51.494;6.670;2023-04-24T08:20:43;8.40;99.90
19017;DHT22;9641;51.494;6.670;2023-04-24T08:23:10;8.50;99.90
19017;DHT22;9641;51.494;6.670;2023-04-24T08:25:37;8.50;99.90
19017;DHT22;9641;51.494;6.670;2023-04-24T08:28:06;8.50;99.90
19017;DHT22;9641;51.494;6.670;2023-04-24T08:30:33;8.50;99.90
19017;DHT22;9641;51.494;6.670;2023-04-24T08:32:59;8.60;99.90
19017;DHT22;9641;51.494;6.670;2023-04-24T08:35:26;8.70;99.90
19017;DHT22;9641;51.494;6.670;2023-04-24T08:37:55;8.80;99.90
19017;DHT22;9641;51.494;6.670;2023-04-24T08:40:27;8.90;99.90
19017;DHT22;9641;51.494;6.670;2023-04-24T08:42:55;8.90;99.90
19017;DHT22;9641;51.494;6.670;2023-04-24T08:45:23;8.90;99.90
19017;DHT22;9641;51.494;6.670;2023-04-24T08:47:52;9.00;99.90
19017;DHT22;9641;51.494;6.670;2023-04-24T08:50:20;9.00;99.90
19017;DHT22;9641;51.494;6.670;2023-04-24T08:52:49;9.00;99.90
19017;DHT22;9641;51.494;6.670;2023-04-24T08:55:20;9.00;99.90
19017;DHT22;9641;51.494;6.670;2023-04-24T08:57:50;9.00;99.90
19017;DHT22;9641;51.494;6.670;2023-04-24T09:00:19;8.90;99.90
19017;DHT22;9641;51.494;6.670;2023-04-24T09:02:49;8.80;99.90
19017;DHT22;9641;51.494;6.670;2023-04-24T09:05:16;8.80;99.90
19017;DHT22;9641;51.494;6.670;2023-04-24T09:07:47;8.70;99.90
19017;DHT22;9641;51.494;6.670;2023-04-24T09:10:16;8.70;99.90
19017;DHT22;9641;51.494;6.670;2023-04-24T09:12:45;8.60;99.90
19017;DHT22;9641;51.494;6.670;2023-04-24T09:15:13;8.70;99.90
19017;DHT22;9641;51.494;6.670;2023-04-24T09:17:40;8.70;99.90
19017;DHT22;9641;51.494;6.670;2023-04-24T09:20:08;8.50;99.90
19017;DHT22;9641;51.494;6.670;2023-04-24T09:22:36;8.40;99.90
19017;DHT22;9641;51.494;6.670;2023-04-24T09:25:04;8.40;99.90
19017;DHT22;9641;51.494;6.670;2023-04-24T09:27:32;8.30;99.90
19017;DHT22;9641;51.494;6.670;2023-04-24T09:30:01;8.30;99.90
19017;DHT22;9641;51.494;6.670;2023-04-24T09:32:29;8.30;99.90
19017;DHT22;9641;51.494;6.670;2023-04-24T09:35:08;8.30;99.90
19017;DHT22;9641;51.494;6.670;2023-04-24T09:37:36;8.30;99.90
19017;DHT22;9641;51.494;6.670;2023-04-24T09:40:12;8.30;99.90
19017;DHT22;9641;51.494;6.670;2023-04-24T09:42:39;8.40;99.90
19017;DHT22;9641;51.494;6.670;2023-04-24T09:45:10;8.30;99.90
19017;DHT22;9641;51.494;6.670;2023-04-24T09:47:38;8.30;99.90
19017;DHT22;9641;51.494;6.670;2023-04-24T09:50:13;8.20;99.90
19017;DHT22;9641;51.494;6.670;2023-04-24T09:52:45;8.40;99.90
19017;DHT22;9641;51.494;6.670;2023-04-24T09:55:15;8.40;99.90
19017;DHT22;9641;51.494;6.670;2023-04-24T09:57:50;8.50;99.90
19017;DHT22;9641;51.494;6.670;2023-04-24T10:00:26;8.60;99.90
19017;DHT22;9641;51.494;6.670;2023-04-24T10:02:57;8.60;99.90
19017;DHT22;9641;51.494;6.670;2023-04-24T10:05:29;8.60;99.90
19017;DHT22;9641;51.494;6.670;2023-04-24T10:07:58;8.80;99.90
19017;DHT22;9641;51.494;6.670;2023-04-24T10:10:25;8.70;99.90
19017;DHT22;9641;51.494;6.670;2023-04-24T10:12:52;8.60;99.90
19017;DHT22;9641;51.494;6.670;2023-04-24T10:15:20;8.70;99.90
19017;DHT22;9641;51.494;6.670;2023-04-24T10:17:50;8.70;99.90
19017;DHT22;9641;51.494;6.670;2023-04-24T10:20:20;8.70;99.90
19017;DHT22;9641;51.494;6.670;2023-04-24T10:22:49;8.60;99.90
19017;DHT22;9641;51.494;6.670;2023-04-24T10:25:20;8.60;99.90
19017;DHT22;9641;51.494;6.670;2023-04-24T10:27:48;8.60;99.90
19017;DHT22;9641;51.494;6.670;2023-04-24T10:30:16;8.50;99.90
19017;DHT22;9641;51.494;6.670;2023-04-24T10:32:44;8.50;99.90
19017;DHT22;9641;51.494;6.670;2023-04-24T10:35:14;8.50;99.90
19017;DHT22;9641;51.494;6.670;2023-04-24T10:37:44;8.50;99.90
19017;DHT22;9641;51.494;6.670;2023-04-24T10:40:17;8.50;99.90
19017;DHT22;9641;51.494;6.670;2023-04-24T10:42:48;8.70;99.90
19017;DHT22;9641;51.494;6.670;2023-04-24T10:45:18;8.70;99.90
19017;DHT22;9641;51.494;6.670;2023-04-24T10:48:00;8.90;99.90
19017;DHT22;9641;51.494;6.670;2023-04-24T10:50:42;9.00;99.90
19017;DHT22;9641;51.494;6.670;2023-04-24T10:53:15;9.10;99.90
19017;DHT22;9641;51.494;6.670;2023-04-24T10:55:45;9.30;99.90
19017;DHT22;9641;51.494;6.670;2023-04-24T10:58:14;9.60;99.90
19017;DHT22;9641;51.494;6.670;2023-04-24T11:00:43;9.90;99.90
19017;DHT22;9641;51.494;6.670;2023-04-24T11:03:24;10.20;99.90
19017;DHT22;9641;51.494;6.670;2023-04-24T11:05:56;10.10;99.90
19017;DHT22;9641;51.494;6.670;2023-04-24T11:08:25;9.90;99.90
19017;DHT22;9641;51.494;6.670;2023-04-24T11:10:58;9.80;99.90
19017;DHT22;9641;51.494;6.670;2023-04-24T11:13:31;9.70;99.90
19017;DHT22;9641;51.494;6.670;2023-04-24T11:16:15;9.60;99.90
19017;DHT22;9641;51.494;6.670;2023-04-24T11:18:42;9.40;99.90
19017;DHT22;9641;51.494;6.670;2023-04-24T11:21:18;9.30;99.90
19017;DHT22;9641;51.494;6.670;2023-04-24T11:23:46;9.30;99.90
19017;DHT22;9641;51.494;6.670;2023-04-24T11:26:17;9.20;99.90
19017;DHT22;9641;51.494;6.670;2023-04-24T11:28:46;9.00;99.90
19017;DHT22;9641;51.494;6.670;2023-04-24T11:31:35;9.00;99.90
19017;DHT22;9641;51.494;6.670;2023-04-24T11:34:08;9.10;99.90
19017;DHT22;9641;51.494;6.670;2023-04-24T11:36:37;9.30;99.90
19017;DHT22;9641;51.494;6.670;2023-04-24T11:39:05;9.50;99.90
19017;DHT22;9641;51.494;6.670;2023-04-24T11:41:34;9.90;99.90
19017;DHT22;9641;51.494;6.670;2023-04-24T11:44:02;10.30;99.90
19017;DHT22;9641;51.494;6.670;2023-04-24T11:49:50;10.90;45.90
19017;DHT22;9641;51.494;6.670;2023-04-24T11:52:19;11.20;1.00
19017;DHT22;9641;51.494;6.670;2023-04-24T11:54:49;11.10;1.00
19017;DHT22;9641;51.494;6.670;2023-04-24T11:57:18;11.20;1.00
19017;DHT22;9641;51.494;6.670;2023-04-24T11:59:45;11.20;1.00
19017;DHT22;9641;51.494;6.670;2023-04-24T12:02:21;11.00;1.00
19017;DHT22;9641;51.494;6.670;2023-04-24T12:04:48;11.00;1.00
19017;DHT22;9641;51.494;6.670;2023-04-24T12:07:15;10.70;1.00
19017;DHT22;9641;51.494;6.670;2023-04-24T12:09:46;10.60;1.00
19017;DHT22;9641;51.494;6.670;2023-04-24T12:12:14;10.50;1.00
19017;DHT22;9641;51.494;6.670;2023-04-24T12:14:52;10.30;1.00
19017;DHT22;9641;51.494;6.670;2023-04-24T12:17:25;10.10;1.00
19017;DHT22;9641;51.494;6.670;2023-04-24T12:20:00;10.20;1.00
19017;DHT22;9641;51.494;6.670;2023-04-24T12:22:45;10.50;1.00
19017;DHT22;9641;51.494;6.670;2023-04-24T12:25:17;10.70;1.00
19017;DHT22;9641;51.494;6.670;2023-04-24T12:27:45;10.90;1.00
19017;DHT22;9641;51.494;6.670;2023-04-24T12:30:14;10.90;99.90
19017;DHT22;9641;51.494;6.670;2023-04-24T12:32:43;11.00;1.00
19017;DHT22;9641;51.494;6.670;2023-04-24T12:35:10;11.10;1.00
19017;DHT22;9641;51.494;6.670;2023-04-24T12:37:37;11.10;1.00
19017;DHT22;9641;51.494;6.670;2023-04-24T12:40:07;11.20;99.90
19017;DHT22;9641;51.494;6.670;2023-04-24T12:42:42;11.50;1.00
19017;DHT22;9641;51.494;6.670;2023-04-24T12:45:09;11.70;1.00
19017;DHT22;9641;51.494;6.670;2023-04-24T12:47:38;11.80;99.90
19017;DHT22;9641;51.494;6.670;2023-04-24T12:50:07;12.20;70.30
19017;DHT22;9641;51.494;6.670;2023-04-24T12:52:34;12.20;1.00
19017;DHT22;9641;51.494;6.670;2023-04-24T12:55:01;12.30;1.00
19017;DHT22;9641;51.494;6.670;2023-04-24T12:57:29;12.00;99.90
19017;DHT22;9641;51.494;6.670;2023-04-24T12:59:58;11.80;1.00
19017;DHT22;9641;51.494;6.670;2023-04-24T13:02:28;11.70;1.00
19017;DHT22;9641;51.494;6.670;2023-04-24T13:04:56;11.60;1.00
19017;DHT22;9641;51.494;6.670;2023-04-24T13:07:23;11.60;1.00
19017;DHT22;9641;51.494;6.670;2023-04-24T13:09:51;11.60;99.90
19017;DHT22;9641;51.494;6.670;2023-04-24T13:12:18;11.70;99.90
19017;DHT22;9641;51.494;6.670;2023-04-24T13:14:46;11.80;99.90
19017;DHT22;9641;51.494;6.670;2023-04-24T13:17:15;11.50;97.50
19017;DHT22;9641;51.494;6.670;2023-04-24T13:19:43;11.30;1.00
19017;DHT22;9641;51.494;6.670;2023-04-24T13:22:11;11.30;1.00
19017;DHT22;9641;51.494;6.670;2023-04-24T13:24:39;11.20;1.00
19017;DHT22;9641;51.494;6.670;2023-04-24T13:27:07;11.00;1.00
19017;DHT22;9641;51.494;6.670;2023-04-24T13:29:34;11.00;99.90
19017;DHT22;9641;51.494;6.670;2023-04-24T13:32:01;11.00;99.90
19017;DHT22;9641;51.494;6.670;2023-04-24T13:34:30;11.10;1.00
19017;DHT22;9641;51.494;6.670;2023-04-24T13:36:57;11.10;1.00
19017;DHT22;9641;51.494;6.670;2023-04-24T13:39:25;11.40;99.90
19017;DHT22;9641;51.494;6.670;2023-04-24T13:41:54;11.80;1.00
19017;DHT22;9641;51.494;6.670;2023-04-24T13:44:22;11.80;1.00
19017;DHT22;9641;51.494;6.670;2023-04-24T13:46:51;12.10;1.00
19017;DHT22;9641;51.494;6.670;2023-04-24T13:49:20;12.70;1.00
19017;DHT22;9641;51.494;6.670;2023-04-24T13:51:49;13.30;99.90
19017;DHT22;9641;51.494;6.670;2023-04-24T13:54:15;13.20;99.90
19017;DHT22;9641;51.494;6.670;2023-04-24T13:56:43;12.50;99.90
19017;DHT22;9641;51.494;6.670;2023-04-24T13:59:11;12.10;1.00
19017;DHT22;9641;51.494;6.670;2023-04-24T14:01:38;11.80;1.00
19017;DHT22;9641;51.494;6.670;2023-04-24T14:04:05;11.80;99.90
19017;DHT22;9641;51.494;6.670;2023-04-24T14:06:32;11.80;1.00
19017;DHT22;9641;51.494;6.670;2023-04-24T14:09:01;11.60;99.90
19017;DHT22;9641;51.494;6.670;2023-04-24T14:11:28;11.40;1.00
19017;DHT22;9641;51.494;6.670;2023-04-24T14:13:55;11.20;88.80
19017;DHT22;9641;51.494;6.670;2023-04-24T14:16:23;11.00;47.20
19017;DHT22;9641;51.494;6.670;2023-04-24T14:18:53;10.90;1.00
19017;DHT22;9641;51.494;6.670;2023-04-24T14:21:20;10.90;1.00
19017;DHT22;9641;51.494;6.670;2023-04-24T14:23:47;10.80;1.00
19017;DHT22;9641;51.494;6.670;2023-04-24T14:26:16;10.60;1.00
19017;DHT22;9641;51.494;6.670;2023-04-24T14:28:43;10.30;1.00
19017;DHT22;9641;51.494;6.670;2023-04-24T14:31:10;10.10;1.00
19017;DHT22;9641;51.494;6.670;2023-04-24T14:33:37;9.80;1.00
19017;DHT22;9641;51.494;6.670;2023-04-24T14:36:06;9.60;95.60
19017;DHT22;9641;51.494;6.670;2023-04-24T14:38:36;9.60;99.90
19017;DHT22;9641;51.494;6.670;2023-04-24T14:41:05;9.70;99.90
19017;DHT22;9641;51.494;6.670;2023-04-24T14:43:36;9.80;99.90
19017;DHT22;9641;51.494;6.670;2023-04-24T14:46:04;9.70;99.90
19017;DHT22;9641;51.494;6.670;2023-04-24T14:48:32;9.80;48.50
19017;DHT22;9641;51.494;6.670;2023-04-24T14:50:59;10.00;57.90
19017;DHT22;9641;51.494;6.670;2023-04-24T14:53:26;10.40;1.00
19017;DHT22;9641;51.494;6.670;2023-04-24T14:55:53;10.60;1.00
19017;DHT22;9641;51.494;6.670;2023-04-24T14:58:21;10.70;1.00
19017;DHT22;9641;51.494;6.670;2023-04-24T15:00:49;11.10;99.90
19017;DHT22;9641;51.494;6.670;2023-04-24T15:03:20;11.50;99.90
19017;DHT22;9641;51.494;6.670;2023-04-24T15:05:47;12.20;1.00
19017;DHT22;9641;51.494;6.670;2023-04-24T15:08:14;13.90;1.00
19017;DHT22;9641;51.494;6.670;2023-04-24T15:10:41;14.20;1.00
19017;DHT22;9641;51.494;6.670;2023-04-24T15:13:08;13.60;99.90
19017;DHT22;9641;51.494;6.670;2023-04-24T15:15:35;13.70;99.90
19017;DHT22;9641;51.494;6.670;2023-04-24T15:18:04;14.70;99.90
19017;DHT22;9641;51.494;6.670;2023-04-24T15:20:31;15.80;12.40
19017;DHT22;9641;51.494;6.670;2023-04-24T15:22:58;15.20;1.00
19017;DHT22;9641;51.494;6.670;2023-04-24T15:25:26;14.50;1.00
19017;DHT22;9641;51.494;6.670;2023-04-24T15:27:52;14.10;1.00
19017;DHT22;9641;51.494;6.670;2023-04-24T15:30:19;13.40;1.00
19017;DHT22;9641;51.494;6.670;2023-04-24T15:32:46;13.30;1.00
19017;DHT22;9641;51.494;6.670;2023-04-24T15:35:15;13.20;1.00
19017;DHT22;9641;51.494;6.670;2023-04-24T15:37:43;12.90;1.00
19017;DHT22;9641;51.494;6.670;2023-04-24T15:40:13;12.60;58.20
19017;DHT22;9641;51.494;6.670;2023-04-24T15:42:42;12.50;99.90
19017;DHT22;9641;51.494;6.670;2023-04-24T15:45:10;12.60;99.90
19017;DHT22;9641;51.494;6.670;2023-04-24T15:47:37;13.90;99.90
19017;DHT22;9641;51.494;6.670;2023-04-24T15:50:05;15.00;1.00
19017;DHT22;9641;51.494;6.670;2023-04-24T15:52:35;15.60;1.00
19017;DHT22;9641;51.494;6.670;2023-04-24T15:55:03;15.90;1.00
19017;DHT22;9641;51.494;6.670;2023-04-24T15:57:30;16.70;1.00
19017;DHT22;9641;51.494;6.670;2023-04-24T15:59:58;17.00;1.00
19017;DHT22;9641;51.494;6.670;2023-04-24T16:02:25;17.30;1.00
19017;DHT22;9641;51.494;6.670;2023-04-24T16:04:52;15.70;1.00
19017;DHT22;9641;51.494;6.670;2023-04-24T16:07:20;15.20;1.00
19017;DHT22;9641;51.494;6.670;2023-04-24T16:09:48;15.80;1.00